sensor_id;sensor_type;location;lat;lon;timestamp;pressure;altitude;pressure_sealevel;temperature;humidity
6899;BME280;3488;42.616;23.350;2023-01-19T00:01:05;63447.78;;;14.03;46.53
6899;BME280;3488;42.616;23.350;2023-01-19T00:03:33;63450.41;;;14.06;46.56
6899;BME280;3488;42.616;23.350;2023-01-19T00:06:03;63448.31;;;14.04;46.83
6899;BME280;3488;42.616;23.350;2023-01-19T00:08:31;63451.41;;;14.07;46.77
6899;BME280;3488;42.616;23.350;2023-01-19T00:10:58;63445.22;;;14.03;46.88
6899;BME280;3488;42.616;23.350;2023-01-19T00:13:26;63440.00;;;13.96;47.09
6899;BME280;3488;42.616;23.350;2023-01-19T00:15:54;63451.41;;;14.04;47.02
6899;BME280;3488;42.616;23.350;2023-01-19T00:18:21;63441.13;;;14.02;47.08
6899;BME280;3488;42.616;23.350;2023-01-19T00:20:49;63440.00;;;13.96;47.50
6899;BME280;3488;42.616;23.350;2023-01-19T00:23:16;63444.19;;;14.02;47.29
6899;BME280;3488;42.616;23.350;2023-01-19T00:25:43;63443.66;;;13.99;47.30
6899;BME280;3488;42.616;23.350;2023-01-19T00:28:13;63444.16;;;14.00;47.25
6899;BME280;3488;42.616;23.350;2023-01-19T00:30:40;63450.41;;;14.08;46.66
6899;BME280;3488;42.616;23.350;2023-01-19T00:33:09;63456.59;;;14.12;46.64
6899;BME280;3488;42.616;23.350;2023-01-19T00:35:38;63453.03;;;14.11;46.66
6899;BME280;3488;42.616;23.350;2023-01-19T00:38:07;63468.03;;;14.20;46.35
6899;BME280;3488;42.616;23.350;2023-01-19T00:40:35;63453.06;;;14.13;46.40
6899;BME280;3488;42.616;23.350;2023-01-19T00:43:03;63456.09;;;14.11;46.22
6899;BME280;3488;42.616;23.350;2023-01-19T00:45:30;63459.22;;;14.14;46.41
6899;BME280;3488;42.616;23.350;2023-01-19T00:47:57;63450.91;;;14.06;46.56
6899;BME280;3488;42.616;23.350;2023-01-19T00:50:27;63446.81;;;14.05;46.54
6899;BME280;3488;42.616;23.350;2023-01-19T00:52:56;63446.28;;;14.04;46.30
6899;BME280;3488;42.616;23.350;2023-01-19T00:55:26;63448.28;;;14.01;46.29
6899;BME280;3488;42.616;23.350;2023-01-19T00:57:54;63451.94;;;14.07;46.20
6899;BME280;3488;42.616;23.350;2023-01-19T01:00:21;63448.78;;;14.02;46.73
6899;BME280;3488;42.616;23.350;2023-01-19T01:02:50;63450.34;;;14.03;46.35
6899;BME280;3488;42.616;23.350;2023-01-19T01:05:18;63449.38;;;14.05;46.25
6899;BME280;3488;42.616;23.350;2023-01-19T01:07:47;63446.81;;;14.07;45.78
6899;BME280;3488;42.616;23.350;2023-01-19T01:10:16;63457.66;;;14.13;45.70
6899;BME280;3488;42.616;23.350;2023-01-19T01:12:44;63455.06;;;14.10;45.86
6899;BME280;3488;42.616;23.350;2023-01-19T01:15:13;63449.38;;;14.07;45.69
6899;BME280;3488;42.616;23.350;2023-01-19T01:17:41;63460.22;;;14.13;45.47
6899;BME280;3488;42.616;23.350;2023-01-19T01:20:16;63453.97;;;14.07;45.51
6899;BME280;3488;42.616;23.350;2023-01-19T01:22:45;63453.03;;;14.11;45.71
6899;BME280;3488;42.616;23.350;2023-01-19T01:25:15;63453.06;;;14.13;45.01
6899;BME280;3488;42.616;23.350;2023-01-19T01:27:43;63457.69;;;14.15;45.67
6899;BME280;3488;42.616;23.350;2023-01-19T01:30:13;63458.69;;;14.14;45.49
6899;BME280;3488;42.616;23.350;2023-01-19T01:32:40;63451.41;;;14.07;45.52
6899;BME280;3488;42.616;23.350;2023-01-19T01:35:08;63448.88;;;14.07;45.11
6899;BME280;3488;42.616;23.350;2023-01-19T01:37:38;63443.16;;;14.01;45.74
6899;BME280;3488;42.616;23.350;2023-01-19T01:40:12;63457.13;;;14.10;45.42
6899;BME280;3488;42.616;23.350;2023-01-19T01:42:42;63456.13;;;14.14;44.94
6899;BME280;3488;42.616;23.350;2023-01-19T01:45:27;63448.88;;;14.07;45.22
6899;BME280;3488;42.616;23.350;2023-01-19T01:47:57;63450.34;;;14.03;45.27
6899;BME280;3488;42.616;23.350;2023-01-19T01:50:29;63449.88;;;14.05;44.97
6899;BME280;3488;42.616;23.350;2023-01-19T01:53:01;63460.25;;;14.15;44.75
6899;BME280;3488;42.616;23.350;2023-01-19T01:55:30;63455.59;;;14.11;45.18
6899;BME280;3488;42.616;23.350;2023-01-19T01:58:02;63453.03;;;14.11;44.95
6899;BME280;3488;42.616;23.350;2023-01-19T02:00:30;63453.53;;;14.11;44.92
6899;BME280;3488;42.616;23.350;2023-01-19T02:03:18;63451.41;;;14.07;44.70
6899;BME280;3488;42.616;23.350;2023-01-19T02:05:44;63455.50;;;14.06;44.98
6899;BME280;3488;42.616;23.350;2023-01-19T02:08:15;63433.78;;;13.89;45.38
6899;BME280;3488;42.616;23.350;2023-01-19T02:11:01;63440.00;;;13.96;45.16
6899;BME280;3488;42.616;23.350;2023-01-19T02:13:49;63440.56;;;13.99;44.86
6899;BME280;3488;42.616;23.350;2023-01-19T02:16:16;63441.59;;;14.00;44.97
6899;BME280;3488;42.616;23.350;2023-01-19T02:18:43;63450.91;;;14.06;44.47
6899;BME280;3488;42.616;23.350;2023-01-19T02:21:13;63449.38;;;14.07;44.27
6899;BME280;3488;42.616;23.350;2023-01-19T02:23:46;63452.47;;;14.08;44.38
6899;BME280;3488;42.616;23.350;2023-01-19T02:26:16;63457.13;;;14.12;44.26
6899;BME280;3488;42.616;23.350;2023-01-19T02:28:48;63441.63;;;14.02;44.42
6899;BME280;3488;42.616;23.350;2023-01-19T02:31:16;63450.41;;;14.06;44.30
6899;BME280;3488;42.616;23.350;2023-01-19T02:33:44;63446.81;;;14.07;44.00
6899;BME280;3488;42.616;23.350;2023-01-19T02:36:15;63456.13;;;14.14;44.15
6899;BME280;3488;42.616;23.350;2023-01-19T02:38:45;63452.50;;;14.10;44.18
6899;BME280;3488;42.616;23.350;2023-01-19T02:41:15;63456.09;;;14.11;44.32
6899;BME280;3488;42.616;23.350;2023-01-19T02:43:44;63450.91;;;14.06;44.22
6899;BME280;3488;42.616;23.350;2023-01-19T02:46:13;63455.53;;;14.08;44.32
6899;BME280;3488;42.616;23.350;2023-01-19T02:48:40;63447.31;;;14.05;44.34
6899;BME280;3488;42.616;23.350;2023-01-19T02:51:11;63451.41;;;14.07;44.19
6899;BME280;3488;42.616;23.350;2023-01-19T02:54:06;63449.38;;;14.07;44.19
6899;BME280;3488;42.616;23.350;2023-01-19T02:56:57;63441.03;;;13.97;44.42
6899;BME280;3488;42.616;23.350;2023-01-19T02:59:39;63447.25;;;14.00;44.27
6899;BME280;3488;42.616;23.350;2023-01-19T03:02:16;63433.88;;;13.97;44.36
6899;BME280;3488;42.616;23.350;2023-01-19T03:04:57;63439.50;;;13.95;44.23
6899;BME280;3488;42.616;23.350;2023-01-19T03:07:32;63430.19;;;13.88;44.20
6899;BME280;3488;42.616;23.350;2023-01-19T03:10:04;63435.84;;;13.91;44.02
6899;BME280;3488;42.616;23.350;2023-01-19T03:12:39;63433.78;;;13.89;44.21
6899;BME280;3488;42.616;23.350;2023-01-19T03:15:14;63423.44;;;13.82;43.99
6899;BME280;3488;42.616;23.350;2023-01-19T03:17:45;63429.13;;;13.87;43.93
6899;BME280;3488;42.616;23.350;2023-01-19T03:20:16;63446.22;;;13.99;43.46
6899;BME280;3488;42.616;23.350;2023-01-19T03:22:45;63430.72;;;13.89;43.88
6899;BME280;3488;42.616;23.350;2023-01-19T03:25:16;63438.94;;;13.92;43.92
6899;BME280;3488;42.616;23.350;2023-01-19T03:27:46;63434.31;;;13.90;44.50
6899;BME280;3488;42.616;23.350;2023-01-19T03:30:19;63434.84;;;13.93;44.33
6899;BME280;3488;42.616;23.350;2023-01-19T03:32:51;63427.06;;;13.85;44.42
6899;BME280;3488;42.616;23.350;2023-01-19T03:35:23;63434.31;;;13.90;44.22
6899;BME280;3488;42.616;23.350;2023-01-19T03:37:54;63419.31;;;13.80;43.79
6899;BME280;3488;42.616;23.350;2023-01-19T03:40:25;63416.59;;;13.68;44.13
6899;BME280;3488;42.616;23.350;2023-01-19T03:42:53;63429.06;;;13.82;44.21
6899;BME280;3488;42.616;23.350;2023-01-19T03:45:21;63430.66;;;13.86;44.01
6899;BME280;3488;42.616;23.350;2023-01-19T03:47:49;63423.47;;;13.84;43.34
6899;BME280;3488;42.616;23.350;2023-01-19T03:50:22;63437.94;;;13.93;43.25
6899;BME280;3488;42.616;23.350;2023-01-19T03:53:04;63432.22;;;13.88;43.23
6899;BME280;3488;42.616;23.350;2023-01-19T03:55:33;63426.00;;;13.82;43.65
6899;BME280;3488;42.616;23.350;2023-01-19T03:58:00;63421.38;;;13.80;43.60
6899;BME280;3488;42.616;23.350;2023-01-19T04:00:27;63423.44;;;13.82;43.35
6899;BME280;3488;42.616;23.350;2023-01-19T04:02:55;63422.41;;;13.81;43.52
6899;BME280;3488;42.616;23.350;2023-01-19T04:05:22;63424.44;;;13.80;43.28
6899;BME280;3488;42.616;23.350;2023-01-19T04:07:49;63421.84;;;13.78;43.14
6899;BME280;3488;42.616;23.350;2023-01-19T04:10:17;63418.28;;;13.79;43.11
6899;BME280;3488;42.616;23.350;2023-01-19T04:12:46;63436.31;;;13.87;42.99
6899;BME280;3488;42.616;23.350;2023-01-19T04:15:14;63421.31;;;13.77;43.17
6899;BME280;3488;42.616;23.350;2023-01-19T04:17:41;63412.56;;;13.74;43.09
6899;BME280;3488;42.616;23.350;2023-01-19T04:20:09;63422.84;;;13.76;42.78
6899;BME280;3488;42.616;23.350;2023-01-19T04:22:36;63426.03;;;13.84;42.63
6899;BME280;3488;42.616;23.350;2023-01-19T04:25:05;63428.16;;;13.89;42.05
6899;BME280;3488;42.616;23.350;2023-01-19T04:27:32;63433.81;;;13.92;42.16
6899;BME280;3488;42.616;23.350;2023-01-19T04:30:01;63432.78;;;13.91;42.04
6899;BME280;3488;42.616;23.350;2023-01-19T04:32:29;63434.91;;;13.96;41.98
6899;BME280;3488;42.616;23.350;2023-01-19T04:34:57;63436.91;;;13.93;42.26
6899;BME280;3488;42.616;23.350;2023-01-19T04:37:25;63433.81;;;13.92;42.13
6899;BME280;3488;42.616;23.350;2023-01-19T04:39:52;63432.25;;;13.90;41.93
6899;BME280;3488;42.616;23.350;2023-01-19T04:42:19;63437.47;;;13.96;42.26
6899;BME280;3488;42.616;23.350;2023-01-19T04:44:46;63434.25;;;13.87;42.13
6899;BME280;3488;42.616;23.350;2023-01-19T04:47:17;63421.91;;;13.83;42.12
6899;BME280;3488;42.616;23.350;2023-01-19T04:49:44;63438.94;;;13.92;41.89
6899;BME280;3488;42.616;23.350;2023-01-19T04:52:11;63430.22;;;13.91;42.03
6899;BME280;3488;42.616;23.350;2023-01-19T04:54:38;63431.69;;;13.87;41.77
6899;BME280;3488;42.616;23.350;2023-01-19T04:57:05;63428.59;;;13.84;41.59
6899;BME280;3488;42.616;23.350;2023-01-19T04:59:32;63429.06;;;13.82;41.79
6899;BME280;3488;42.616;23.350;2023-01-19T05:01:59;63422.88;;;13.79;41.89
6899;BME280;3488;42.616;23.350;2023-01-19T05:04:28;63415.13;;;13.74;41.86
6899;BME280;3488;42.616;23.350;2023-01-19T05:06:55;63423.41;;;13.79;41.51
6899;BME280;3488;42.616;23.350;2023-01-19T05:09:22;63423.94;;;13.82;41.47
6899;BME280;3488;42.616;23.350;2023-01-19T05:11:50;63426.03;;;13.84;41.91
6899;BME280;3488;42.616;23.350;2023-01-19T05:14:17;63426.00;;;13.82;41.80
6899;BME280;3488;42.616;23.350;2023-01-19T05:16:47;63427.50;;;13.81;41.56
6899;BME280;3488;42.616;23.350;2023-01-19T05:19:14;63439.47;;;13.93;41.19
6899;BME280;3488;42.616;23.350;2023-01-19T05:21:43;63441.03;;;13.97;41.37
6899;BME280;3488;42.616;23.350;2023-01-19T05:24:10;63429.66;;;13.88;41.43
6899;BME280;3488;42.616;23.350;2023-01-19T05:26:38;63435.38;;;13.93;41.04
6899;BME280;3488;42.616;23.350;2023-01-19T05:29:05;63448.31;;;14.04;40.90
6899;BME280;3488;42.616;23.350;2023-01-19T05:31:32;63439.50;;;13.95;41.12
6899;BME280;3488;42.616;23.350;2023-01-19T05:34:00;63440.53;;;13.96;40.70
6899;BME280;3488;42.616;23.350;2023-01-19T05:36:27;63444.16;;;14.00;40.76
6899;BME280;3488;42.616;23.350;2023-01-19T05:38:55;63449.91;;;14.08;40.13
6899;BME280;3488;42.616;23.350;2023-01-19T05:41:22;63461.28;;;14.16;39.81
6899;BME280;3488;42.616;23.350;2023-01-19T05:43:49;63469.13;;;14.26;39.65
6899;BME280;3488;42.616;23.350;2023-01-19T05:46:16;63462.91;;;14.20;39.90
6899;BME280;3488;42.616;23.350;2023-01-19T05:48:43;63463.41;;;14.21;40.13
6899;BME280;3488;42.616;23.350;2023-01-19T05:51:11;63454.06;;;14.12;40.27
6899;BME280;3488;42.616;23.350;2023-01-19T05:53:37;63473.16;;;14.23;39.64
6899;BME280;3488;42.616;23.350;2023-01-19T05:56:07;63460.25;;;14.15;40.07
6899;BME280;3488;42.616;23.350;2023-01-19T05:58:35;63456.09;;;14.11;40.44
6899;BME280;3488;42.616;23.350;2023-01-19T06:01:05;63457.66;;;14.13;40.16
6899;BME280;3488;42.616;23.350;2023-01-19T06:03:33;63464.88;;;14.17;39.70
6899;BME280;3488;42.616;23.350;2023-01-19T06:06:02;63462.31;;;14.17;40.01
6899;BME280;3488;42.616;23.350;2023-01-19T06:08:29;63457.69;;;14.15;39.89
6899;BME280;3488;42.616;23.350;2023-01-19T06:10:56;63457.66;;;14.13;39.99
6899;BME280;3488;42.616;23.350;2023-01-19T06:13:25;63462.84;;;14.18;39.93
6899;BME280;3488;42.616;23.350;2023-01-19T06:15:56;63458.66;;;14.11;40.20
6899;BME280;3488;42.616;23.350;2023-01-19T06:18:23;63461.28;;;14.16;39.80
6899;BME280;3488;42.616;23.350;2023-01-19T06:20:50;63452.00;;;14.10;39.67
6899;BME280;3488;42.616;23.350;2023-01-19T06:23:23;63458.75;;;14.16;39.55
6899;BME280;3488;42.616;23.350;2023-01-19T06:25:50;63469.13;;;14.26;39.30
6899;BME280;3488;42.616;23.350;2023-01-19T06:28:17;63467.50;;;14.22;39.54
6899;BME280;3488;42.616;23.350;2023-01-19T06:30:48;63472.72;;;14.27;39.34
6899;BME280;3488;42.616;23.350;2023-01-19T06:33:15;63471.16;;;14.26;39.37
6899;BME280;3488;42.616;23.350;2023-01-19T06:35:42;63461.28;;;14.16;39.62
6899;BME280;3488;42.616;23.350;2023-01-19T06:38:10;63469.56;;;14.22;39.25
6899;BME280;3488;42.616;23.350;2023-01-19T06:40:38;63473.78;;;14.28;39.40
6899;BME280;3488;42.616;23.350;2023-01-19T06:43:06;63481.03;;;14.35;38.76
6899;BME280;3488;42.616;23.350;2023-01-19T06:45:33;63493.03;;;14.49;38.69
6899;BME280;3488;42.616;23.350;2023-01-19T06:48:02;63492.97;;;14.47;39.08
6899;BME280;3488;42.616;23.350;2023-01-19T06:50:28;63501.28;;;14.55;38.89
6899;BME280;3488;42.616;23.350;2023-01-19T06:52:56;63501.31;;;14.57;38.62
6899;BME280;3488;42.616;23.350;2023-01-19T06:55:23;63495.13;;;14.54;38.51
6899;BME280;3488;42.616;23.350;2023-01-19T06:57:55;63515.88;;;14.71;38.10
6899;BME280;3488;42.616;23.350;2023-01-19T07:00:23;63520.53;;;14.76;37.82
6899;BME280;3488;42.616;23.350;2023-01-19T07:02:50;63530.38;;;14.83;37.49
6899;BME280;3488;42.616;23.350;2023-01-19T07:05:19;63538.19;;;14.93;37.50
6899;BME280;3488;42.616;23.350;2023-01-19T07:07:50;63556.88;;;15.08;37.08
6899;BME280;3488;42.616;23.350;2023-01-19T07:10:17;63571.47;;;15.25;36.57
6899;BME280;3488;42.616;23.350;2023-01-19T07:12:45;63585.38;;;15.31;36.49
6899;BME280;3488;42.616;23.350;2023-01-19T07:15:13;63569.91;;;15.24;36.31
6899;BME280;3488;42.616;23.350;2023-01-19T07:17:40;63582.28;;;15.31;35.98
6899;BME280;3488;42.616;23.350;2023-01-19T07:20:08;63586.53;;;15.40;36.37
6899;BME280;3488;42.616;23.350;2023-01-19T07:22:39;63595.84;;;15.46;35.74
6899;BME280;3488;42.616;23.350;2023-01-19T07:25:08;63613.03;;;15.63;35.69
6899;BME280;3488;42.616;23.350;2023-01-19T07:27:35;63617.72;;;15.70;35.62
6899;BME280;3488;42.616;23.350;2023-01-19T07:30:02;63628.13;;;15.80;35.49
6899;BME280;3488;42.616;23.350;2023-01-19T07:32:30;63635.88;;;15.85;35.22
6899;BME280;3488;42.616;23.350;2023-01-19T07:34:57;63639.56;;;15.91;35.32
6899;BME280;3488;42.616;23.350;2023-01-19T07:37:24;63639.00;;;15.88;35.54
6899;BME280;3488;42.616;23.350;2023-01-19T07:39:53;63626.56;;;15.78;35.22
6899;BME280;3488;42.616;23.350;2023-01-19T07:42:20;63627.13;;;15.81;34.92
6899;BME280;3488;42.616;23.350;2023-01-19T07:44:55;63625.56;;;15.80;35.30
6899;BME280;3488;42.616;23.350;2023-01-19T07:47:23;63626.56;;;15.78;34.90
6899;BME280;3488;42.616;23.350;2023-01-19T07:49:50;63633.84;;;15.85;35.39
6899;BME280;3488;42.616;23.350;2023-01-19T07:52:18;63638.50;;;15.87;35.17
6899;BME280;3488;42.616;23.350;2023-01-19T07:54:52;63642.13;;;15.91;35.22
6899;BME280;3488;42.616;23.350;2023-01-19T07:57:20;63642.63;;;15.89;34.82
6899;BME280;3488;42.616;23.350;2023-01-19T07:59:49;63637.50;;;15.89;34.62
6899;BME280;3488;42.616;23.350;2023-01-19T08:02:16;63649.34;;;15.93;34.65
6899;BME280;3488;42.616;23.350;2023-01-19T08:04:43;63648.91;;;15.97;34.86
6899;BME280;3488;42.616;23.350;2023-01-19T08:07:13;63655.09;;;16.01;34.58
6899;BME280;3488;42.616;23.350;2023-01-19T08:09:45;63650.94;;;15.97;34.14
6899;BME280;3488;42.616;23.350;2023-01-19T08:12:15;63650.44;;;15.99;34.33
6899;BME280;3488;42.616;23.350;2023-01-19T08:14:45;63658.28;;;16.09;34.35
6899;BME280;3488;42.616;23.350;2023-01-19T08:17:12;63664.47;;;16.10;34.88
6899;BME280;3488;42.616;23.350;2023-01-19T08:19:39;63652.00;;;16.00;34.89
6899;BME280;3488;42.616;23.350;2023-01-19T08:22:06;63666.56;;;16.14;34.21
6899;BME280;3488;42.616;23.350;2023-01-19T08:24:33;63681.09;;;16.26;34.58
6899;BME280;3488;42.616;23.350;2023-01-19T08:27:01;63666.63;;;16.19;34.07
6899;BME280;3488;42.616;23.350;2023-01-19T08:29:30;63672.81;;;16.20;34.37
6899;BME280;3488;42.616;23.350;2023-01-19T08:31:59;63679.59;;;16.27;34.08
6899;BME280;3488;42.616;23.350;2023-01-19T08:34:27;63686.41;;;16.39;33.90
6899;BME280;3488;42.616;23.350;2023-01-19T08:36:55;63685.28;;;16.33;34.82
6899;BME280;3488;42.616;23.350;2023-01-19T08:39:22;63681.69;;;16.32;34.43
6899;BME280;3488;42.616;23.350;2023-01-19T08:41:50;63683.25;;;16.33;34.25
6899;BME280;3488;42.616;23.350;2023-01-19T08:44:17;63695.72;;;16.45;34.27
6899;BME280;3488;42.616;23.350;2023-01-19T08:46:47;63701.44;;;16.48;34.23
6899;BME280;3488;42.616;23.350;2023-01-19T08:49:15;63693.63;;;16.41;34.35
6899;BME280;3488;42.616;23.350;2023-01-19T08:51:42;63698.28;;;16.45;34.35
6899;BME280;3488;42.616;23.350;2023-01-19T08:54:11;63720.13;;;16.64;34.00
6899;BME280;3488;42.616;23.350;2023-01-19T08:56:38;63703.56;;;16.53;33.86
6899;BME280;3488;42.616;23.350;2023-01-19T08:59:05;63715.50;;;16.62;34.04
6899;BME280;3488;42.616;23.350;2023-01-19T09:01:32;63721.75;;;16.70;34.42
6899;BME280;3488;42.616;23.350;2023-01-19T09:04:00;63736.28;;;16.82;34.05
6899;BME280;3488;42.616;23.350;2023-01-19T09:06:28;63736.81;;;16.82;33.88
6899;BME280;3488;42.616;23.350;2023-01-19T09:08:55;63743.03;;;16.86;34.23
6899;BME280;3488;42.616;23.350;2023-01-19T09:11:22;63748.28;;;16.96;33.84
6899;BME280;3488;42.616;23.350;2023-01-19T09:13:52;63754.47;;;16.97;33.99
6899;BME280;3488;42.616;23.350;2023-01-19T09:16:19;63740.47;;;16.88;33.52
6899;BME280;3488;42.616;23.350;2023-01-19T09:18:46;63745.66;;;16.91;33.67
6899;BME280;3488;42.616;23.350;2023-01-19T09:21:15;63734.25;;;16.82;33.53
6899;BME280;3488;42.616;23.350;2023-01-19T09:23:53;63743.59;;;16.91;34.05
6899;BME280;3488;42.616;23.350;2023-01-19T09:26:20;63740.47;;;16.88;34.26
6899;BME280;3488;42.616;23.350;2023-01-19T09:28:48;63748.78;;;16.94;33.94
6899;BME280;3488;42.616;23.350;2023-01-19T09:31:15;63741.44;;;16.82;34.14
6899;BME280;3488;42.616;23.350;2023-01-19T09:33:42;63733.19;;;16.81;34.21
6899;BME280;3488;42.616;23.350;2023-01-19T09:36:10;63729.50;;;16.73;34.33
6899;BME280;3488;42.616;23.350;2023-01-19T09:38:39;63710.34;;;16.62;34.60
6899;BME280;3488;42.616;23.350;2023-01-19T09:41:15;63685.84;;;16.36;35.21
6899;BME280;3488;42.616;23.350;2023-01-19T09:43:46;63696.72;;;16.44;35.12
6899;BME280;3488;42.616;23.350;2023-01-19T09:46:18;63703.00;;;16.50;35.28
6899;BME280;3488;42.616;23.350;2023-01-19T09:48:47;63715.50;;;16.64;34.47
6899;BME280;3488;42.616;23.350;2023-01-19T09:51:19;63714.44;;;16.61;34.54
6899;BME280;3488;42.616;23.350;2023-01-19T09:53:55;63719.09;;;16.63;34.40
6899;BME280;3488;42.616;23.350;2023-01-19T09:56:23;63713.91;;;16.60;34.34
6899;BME280;3488;42.616;23.350;2023-01-19T09:58:50;63703.56;;;16.53;34.43
6899;BME280;3488;42.616;23.350;2023-01-19T10:01:35;63693.13;;;16.43;34.43
6899;BME280;3488;42.616;23.350;2023-01-19T10:04:37;63688.44;;;16.38;35.13
6899;BME280;3488;42.616;23.350;2023-01-19T10:07:21;63692.56;;;16.40;35.16
6899;BME280;3488;42.616;23.350;2023-01-19T10:10:12;63694.16;;;16.44;34.92
6899;BME280;3488;42.616;23.350;2023-01-19T10:15:38;63683.72;;;16.31;35.53
6899;BME280;3488;42.616;23.350;2023-01-19T10:18:12;63675.91;;;16.21;36.24
6899;BME280;3488;42.616;23.350;2023-01-19T10:20:47;63674.88;;;16.20;36.17
6899;BME280;3488;42.616;23.350;2023-01-19T10:23:34;63668.09;;;16.13;36.25
6899;BME280;3488;42.616;23.350;2023-01-19T10:26:08;63662.47;;;16.15;36.09
6899;BME280;3488;42.616;23.350;2023-01-19T10:28:38;63649.44;;;16.00;35.65
6899;BME280;3488;42.616;23.350;2023-01-19T10:31:06;63644.19;;;15.93;35.48
6899;BME280;3488;42.616;23.350;2023-01-19T10:33:34;63632.28;;;15.84;36.16
6899;BME280;3488;42.616;23.350;2023-01-19T10:36:14;63625.03;;;15.79;36.47
6899;BME280;3488;42.616;23.350;2023-01-19T10:38:42;63621.88;;;15.74;36.57
6899;BME280;3488;42.616;23.350;2023-01-19T10:41:25;63620.31;;;15.72;36.81
6899;BME280;3488;42.616;23.350;2023-01-19T10:44:01;63627.06;;;15.76;35.84
6899;BME280;3488;42.616;23.350;2023-01-19T10:46:36;63615.59;;;15.65;36.17
6899;BME280;3488;42.616;23.350;2023-01-19T10:49:21;63621.38;;;15.73;35.89
6899;BME280;3488;42.616;23.350;2023-01-19T10:51:52;63630.75;;;15.82;36.23
6899;BME280;3488;42.616;23.350;2023-01-19T10:54:20;63634.34;;;15.83;36.37
6899;BME280;3488;42.616;23.350;2023-01-19T10:56:52;63657.72;;;16.06;36.14
6899;BME280;3488;42.616;23.350;2023-01-19T10:59:32;63643.22;;;15.97;36.39
6899;BME280;3488;42.616;23.350;2023-01-19T11:02:16;63642.66;;;15.91;37.48
6899;BME280;3488;42.616;23.350;2023-01-19T11:04:49;63631.25;;;15.83;37.31
6899;BME280;3488;42.616;23.350;2023-01-19T11:07:21;63640.59;;;15.92;37.15
6899;BME280;3488;42.616;23.350;2023-01-19T11:09:49;63651.94;;;15.95;36.86
6899;BME280;3488;42.616;23.350;2023-01-19T11:12:40;63642.09;;;15.88;37.34
6899;BME280;3488;42.616;23.350;2023-01-19T11:15:18;63650.97;;;15.99;36.59
6899;BME280;3488;42.616;23.350;2023-01-19T11:17:55;63654.06;;;16.00;36.50
6899;BME280;3488;42.616;23.350;2023-01-19T11:20:25;63652.47;;;15.96;36.53
6899;BME280;3488;42.616;23.350;2023-01-19T11:23:05;63635.38;;;15.84;36.48
6899;BME280;3488;42.616;23.350;2023-01-19T11:25:34;63650.47;;;16.01;36.47
6899;BME280;3488;42.616;23.350;2023-01-19T11:28:03;63661.88;;;16.07;35.93
6899;BME280;3488;42.616;23.350;2023-01-19T11:30:30;63658.22;;;16.04;35.84
6899;BME280;3488;42.616;23.350;2023-01-19T11:32:57;63652.06;;;16.03;36.20
6899;BME280;3488;42.616;23.350;2023-01-19T11:35:34;63678.50;;;16.24;35.80
6899;BME280;3488;42.616;23.350;2023-01-19T11:38:14;63685.31;;;16.35;35.57
6899;BME280;3488;42.616;23.350;2023-01-19T11:40:48;63681.66;;;16.29;35.59
6899;BME280;3488;42.616;23.350;2023-01-19T11:43:18;63662.94;;;16.13;35.62
6899;BME280;3488;42.616;23.350;2023-01-19T11:45:45;63664.53;;;16.15;35.13
6899;BME280;3488;42.616;23.350;2023-01-19T11:48:17;63666.09;;;16.16;35.56
6899;BME280;3488;42.616;23.350;2023-01-19T11:50:48;63675.38;;;16.20;35.68
6899;BME280;3488;42.616;23.350;2023-01-19T11:53:19;63683.25;;;16.33;35.34
6899;BME280;3488;42.616;23.350;2023-01-19T11:55:52;63695.19;;;16.45;35.10
6899;BME280;3488;42.616;23.350;2023-01-19T11:58:23;63694.16;;;16.44;35.60
6899;BME280;3488;42.616;23.350;2023-01-19T12:00:53;63687.91;;;16.35;35.11
6899;BME280;3488;42.616;23.350;2023-01-19T12:03:24;63676.97;;;16.25;35.18
6899;BME280;3488;42.616;23.350;2023-01-19T12:05:59;63672.31;;;16.20;35.51
6899;BME280;3488;42.616;23.350;2023-01-19T12:08:33;63667.66;;;16.18;35.31
6899;BME280;3488;42.616;23.350;2023-01-19T12:11:02;63667.13;;;16.17;35.23
6899;BME280;3488;42.616;23.350;2023-01-19T12:13:32;63686.34;;;16.34;35.10
6899;BME280;3488;42.616;23.350;2023-01-19T12:16:05;63679.06;;;16.27;35.09
6899;BME280;3488;42.616;23.350;2023-01-19T12:18:37;63682.63;;;16.25;35.39
6899;BME280;3488;42.616;23.350;2023-01-19T12:21:05;63671.78;;;16.19;35.02
6899;BME280;3488;42.616;23.350;2023-01-19T12:23:52;63662.94;;;16.11;35.19
6899;BME280;3488;42.616;23.350;2023-01-19T12:26:25;63662.94;;;16.13;35.50
6899;BME280;3488;42.616;23.350;2023-01-19T12:28:57;63652.06;;;16.03;35.06
6899;BME280;3488;42.616;23.350;2023-01-19T12:31:26;63655.16;;;16.06;35.31
6899;BME280;3488;42.616;23.350;2023-01-19T12:33:53;63648.34;;;15.94;34.99
6899;BME280;3488;42.616;23.350;2023-01-19T12:36:34;63653.03;;;15.99;35.00
6899;BME280;3488;42.616;23.350;2023-01-19T12:39:03;63646.34;;;16.00;35.23
6899;BME280;3488;42.616;23.350;2023-01-19T12:41:33;63652.00;;;16.00;35.35
6899;BME280;3488;42.616;23.350;2023-01-19T12:44:28;63646.31;;;15.97;35.38
6899;BME280;3488;42.616;23.350;2023-01-19T12:46:56;63638.00;;;15.89;35.39
6899;BME280;3488;42.616;23.350;2023-01-19T12:49:32;63644.72;;;15.91;35.51
6899;BME280;3488;42.616;23.350;2023-01-19T12:52:16;63633.84;;;15.85;35.58
6899;BME280;3488;42.616;23.350;2023-01-19T12:54:51;63635.38;;;15.84;36.47
6899;BME280;3488;42.616;23.350;2023-01-19T12:57:22;63627.59;;;15.79;36.69
6899;BME280;3488;42.616;23.350;2023-01-19T12:59:57;63620.31;;;15.70;36.36
6899;BME280;3488;42.616;23.350;2023-01-19T13:02:40;63621.34;;;15.71;35.85
6899;BME280;3488;42.616;23.350;2023-01-19T13:05:14;63637.94;;;15.84;35.37
6899;BME280;3488;42.616;23.350;2023-01-19T13:17:28;63657.19;;;16.03;34.98
6899;BME280;3488;42.616;23.350;2023-01-19T13:20:22;63642.69;;;15.94;35.29
6899;BME280;3488;42.616;23.350;2023-01-19T13:23:15;63648.44;;;16.02;35.53
6899;BME280;3488;42.616;23.350;2023-01-19T13:28:31;63635.94;;;15.87;35.42
6899;BME280;3488;42.616;23.350;2023-01-19T13:31:01;63639.00;;;15.88;35.86
6899;BME280;3488;42.616;23.350;2023-01-19T13:33:36;63641.09;;;15.90;35.45
6899;BME280;3488;42.616;23.350;2023-01-19T13:36:15;63642.13;;;15.91;35.07
6899;BME280;3488;42.616;23.350;2023-01-19T13:38:44;63633.81;;;15.83;35.58
6899;BME280;3488;42.616;23.350;2023-01-19T13:41:14;63643.69;;;15.92;35.57
6899;BME280;3488;42.616;23.350;2023-01-19T13:43:42;63635.44;;;15.89;35.54